Terminal Aerodrome Forecast
Issued by NWS

Home | Current Version | Previous Version | Text Only | Print | Product List | Glossary On
Versions: 1 2 3 4 5 6 7 8 9 10 11 12 13 14 15 16 17 18 19 20 21 22 23 24 25 26 27 28 29 30
282
FTUS43 KDLH 271829 AAA
TAFHIB
TAF AMD
KHIB 271829Z 2718/2818 09003KT P6SM -RA OVC080
     FM280400 06004KT P6SM -SHRA OVC015
     FM280700 04002KT 4SM -SHRA BR OVC007
     FM281000 00000KT 2SM BR OVC004
     FM281600 VRB03KT 4SM BR OVC007=

USA.gov is the U.S. government's official web portal to all federal, state and local government web resources and services.